Date,TemperatureHighF,TemperatureAvgF,TemperatureLowF,DewpointHighF,DewpointAvgF,DewpointLowF,HumidityHigh,HumidityAvg,HumidityLow,PressureMaxIn,PressureMinIn,WindSpeedMaxMPH,WindSpeedAvgMPH,GustSpeedMaxMPH,PrecipitationSumIn
2013-2-1,70,55,45,56,46,39,95,75,41,30.36,30.23,6,1,9,0.00
2013-2-2,73,58,46,61,53,45,98,84,57,30.26,30.16,3,0,7,0.00
2013-2-3,71,58,50,53,47,38,97,71,34,30.32,30.07,5,1,9,0.00
2013-2-4,74,64,54,65,60,51,96,87,75,30.06,29.83,5,0,7,0.00
2013-2-5,78,67,59,69,64,57,98,91,72,29.98,29.86,4,0,8,0.00
2013-2-6,65,63,61,64,62,59,98,96,93,30.04,29.84,9,2,15,0.00
2013-2-7,68,62,53,64,60,52,98,93,84,29.98,29.89,4,0,7,0.32
2013-2-8,70,62,55,61,55,52,97,81,60,30.16,29.98,4,1,9,0.00
2013-2-9,69,62,56,67,59,53,94,90,85,30.12,29.86,9,2,10,0.02
2013-2-10,75,67,61,72,64,58,95,90,81,29.95,29.75,7,1,15,0.12
2013-2-11,64,63,62,59,58,57,86,83,82,29.97,29.94,0,0,3,0.00
2013-2-12,68,62,57,68,59,53,98,91,83,29.97,29.78,5,0,6,0.04
2013-2-13,64,54,45,51,44,41,89,72,48,30.10,29.97,2,0,6,0.07
2013-2-14,66,50,38,49,41,32,97,74,32,30.16,30.05,3,0,6,0.00
2013-2-15,70,54,39,53,44,38,98,74,42,30.30,30.09,5,0,8,0.00
2013-2-16,64,51,41,40,32,25,89,51,28,30.43,30.25,3,0,8,0.00
2013-2-17,69,56,38,55,45,36,97,71,41,30.26,30.06,10,1,15,0.00
2013-2-18,73,67,56,65,61,53,92,81,72,30.06,29.84,13,3,20,0.17
2013-2-19,67,58,52,54,46,40,93,65,39,30.24,30.06,6,1,10,0.02
2013-2-20,62,58,54,61,52,40,95,82,51,30.12,29.80,7,3,16,0.18
2013-2-21,76,68,59,71,64,54,97,88,60,29.84,29.67,7,2,15,0.07
2013-2-22,69,62,57,57,52,46,91,71,52,29.96,29.82,7,1,11,0.01
2013-2-23,68,58,49,55,50,46,95,77,60,29.98,29.88,2,0,5,0.00
2013-2-24,66,58,45,60,55,44,97,88,75,29.93,29.66,6,1,11,0.02
2013-2-25,76,64,50,70,48,27,98,64,17,29.76,29.50,11,2,18,0.00
2013-2-26,66,54,45,42,37,33,71,54,34,29.93,29.77,6,1,11,0.00
2013-2-27,75,57,41,56,42,32,95,61,29,30.14,29.89,6,1,11,0.00
2013-2-28,59,50,39,35,32,29,81,50,33,30.26,30.14,3,0,10,0.00